sensor_id;sensor_type;location;lat;lon;timestamp;pressure;altitude;pressure_sealevel;temperature;humidity
64602;BME280;68371;42.630;23.192;2023-09-07T00:03:25;92816.75;;;18.49;76.18
64602;BME280;68371;42.630;23.192;2023-09-07T00:06:15;92806.94;;;18.60;76.49
64602;BME280;68371;42.630;23.192;2023-09-07T00:08:56;92802.34;;;18.57;76.83
64602;BME280;68371;42.630;23.192;2023-09-07T00:11:45;92802.34;;;18.53;77.18
64602;BME280;68371;42.630;23.192;2023-09-07T00:18:08;92808.41;;;18.50;77.54
64602;BME280;68371;42.630;23.192;2023-09-07T00:27:46;92804.25;;;18.49;78.73
64602;BME280;68371;42.630;23.192;2023-09-07T00:30:13;92804.22;;;18.46;79.39
64602;BME280;68371;42.630;23.192;2023-09-07T00:32:55;92803.03;;;18.36;80.04
64602;BME280;68371;42.630;23.192;2023-09-07T00:35:37;92790.09;;;18.27;80.06
64602;BME280;68371;42.630;23.192;2023-09-07T00:38:24;92800.34;;;18.29;79.93
64602;BME280;68371;42.630;23.192;2023-09-07T00:41:12;92787.03;;;18.25;79.32
64602;BME280;68371;42.630;23.192;2023-09-07T00:47:18;92791.22;;;18.30;79.32
64602;BME280;68371;42.630;23.192;2023-09-07T00:50:14;92784.41;;;18.36;79.03
64602;BME280;68371;42.630;23.192;2023-09-07T00:53:06;92785.19;;;18.40;78.46
64602;BME280;68371;42.630;23.192;2023-09-07T00:55:54;92790.88;;;18.38;78.86
64602;BME280;68371;42.630;23.192;2023-09-07T01:01:39;92777.16;;;18.33;78.75
64602;BME280;68371;42.630;23.192;2023-09-07T01:46:54;92787.38;;;18.13;79.42
64602;BME280;68371;42.630;23.192;2023-09-07T01:49:53;92783.16;;;18.12;79.03
64602;BME280;68371;42.630;23.192;2023-09-07T01:56:08;92784.72;;;18.20;78.37
64602;BME280;68371;42.630;23.192;2023-09-07T01:58:52;92779.78;;;18.22;78.95
64602;BME280;68371;42.630;23.192;2023-09-07T02:01:40;92779.06;;;18.25;79.89
64602;BME280;68371;42.630;23.192;2023-09-07T02:27:02;92786.19;;;18.10;80.40
64602;BME280;68371;42.630;23.192;2023-09-07T02:30:23;92777.81;;;18.08;80.37
64602;BME280;68371;42.630;23.192;2023-09-07T02:33:42;92790.03;;;18.16;81.03
64602;BME280;68371;42.630;23.192;2023-09-07T02:36:47;92796.47;;;18.12;80.72
64602;BME280;68371;42.630;23.192;2023-09-07T03:28:54;92814.28;;;17.52;92.19
64602;BME280;68371;42.630;23.192;2023-09-07T03:31:39;92812.38;;;17.53;91.96
64602;BME280;68371;42.630;23.192;2023-09-07T03:34:19;92823.34;;;17.44;92.80
64602;BME280;68371;42.630;23.192;2023-09-07T03:36:49;92823.69;;;17.42;93.19
64602;BME280;68371;42.630;23.192;2023-09-07T03:39:30;92833.88;;;17.37;94.26
64602;BME280;68371;42.630;23.192;2023-09-07T03:42:14;92828.53;;;17.30;94.29
64602;BME280;68371;42.630;23.192;2023-09-07T03:44:56;92833.50;;;17.35;95.14
64602;BME280;68371;42.630;23.192;2023-09-07T03:47:39;92833.13;;;17.36;95.49
64602;BME280;68371;42.630;23.192;2023-09-07T03:50:07;92833.75;;;17.22;95.83
64602;BME280;68371;42.630;23.192;2023-09-07T03:52:36;92835.97;;;17.13;96.79
64602;BME280;68371;42.630;23.192;2023-09-07T03:55:04;92841.28;;;17.13;97.29
64602;BME280;68371;42.630;23.192;2023-09-07T03:57:33;92834.06;;;17.14;97.63
64602;BME280;68371;42.630;23.192;2023-09-07T04:00:02;92836.59;;;17.03;98.24
64602;BME280;68371;42.630;23.192;2023-09-07T04:02:33;92837.75;;;17.02;99.29
64602;BME280;68371;42.630;23.192;2023-09-07T04:04:59;92829.75;;;16.98;99.19
64602;BME280;68371;42.630;23.192;2023-09-07T04:07:27;92830.09;;;16.97;99.54
64602;BME280;68371;42.630;23.192;2023-09-07T04:09:53;92836.84;;;16.87;100.00
64602;BME280;68371;42.630;23.192;2023-09-07T04:12:24;92826.53;;;16.82;100.00
64602;BME280;68371;42.630;23.192;2023-09-07T04:15:10;92834.03;;;16.76;100.00
64602;BME280;68371;42.630;23.192;2023-09-07T04:17:57;92825.28;;;16.72;100.00
64602;BME280;68371;42.630;23.192;2023-09-07T04:20:25;92830.56;;;16.69;100.00
64602;BME280;68371;42.630;23.192;2023-09-07T04:23:03;92829.41;;;16.70;100.00
64602;BME280;68371;42.630;23.192;2023-09-07T04:25:30;92826.75;;;16.70;100.00
64602;BME280;68371;42.630;23.192;2023-09-07T04:27:59;92825.53;;;16.60;100.00
64602;BME280;68371;42.630;23.192;2023-09-07T04:30:46;92832.41;;;16.65;100.00
64602;BME280;68371;42.630;23.192;2023-09-07T04:33:30;92821.00;;;16.64;100.00
64602;BME280;68371;42.630;23.192;2023-09-07T04:36:22;92816.44;;;16.61;100.00
64602;BME280;68371;42.630;23.192;2023-09-07T04:39:05;92827.47;;;16.63;100.00
64602;BME280;68371;42.630;23.192;2023-09-07T04:41:49;92828.63;;;16.66;100.00
64602;BME280;68371;42.630;23.192;2023-09-07T04:44:29;92820.56;;;16.58;100.00
64602;BME280;68371;42.630;23.192;2023-09-07T04:47:30;92826.38;;;16.68;99.96
64602;BME280;68371;42.630;23.192;2023-09-07T04:49:58;92824.88;;;16.70;99.14
64602;BME280;68371;42.630;23.192;2023-09-07T04:52:41;92829.09;;;16.75;99.18
64602;BME280;68371;42.630;23.192;2023-09-07T04:55:23;92838.63;;;16.79;98.25
64602;BME280;68371;42.630;23.192;2023-09-07T04:58:06;92821.16;;;16.78;97.58
64602;BME280;68371;42.630;23.192;2023-09-07T05:00:48;92818.06;;;16.69;97.17
64602;BME280;68371;42.630;23.192;2023-09-07T05:06:52;92823.19;;;16.85;96.33
64602;BME280;68371;42.630;23.192;2023-09-07T05:09:28;92820.94;;;16.87;96.83
64602;BME280;68371;42.630;23.192;2023-09-07T05:12:12;92820.47;;;16.81;94.96
64602;BME280;68371;42.630;23.192;2023-09-07T05:14:54;92804.22;;;16.87;93.89
64602;BME280;68371;42.630;23.192;2023-09-07T05:17:38;92815.97;;;16.86;94.60
64602;BME280;68371;42.630;23.192;2023-09-07T05:20:21;92817.88;;;16.89;96.01
64602;BME280;68371;42.630;23.192;2023-09-07T05:23:15;92818.31;;;16.94;93.43
64602;BME280;68371;42.630;23.192;2023-09-07T05:29:14;92807.28;;;16.89;91.54
64602;BME280;68371;42.630;23.192;2023-09-07T05:31:58;92814.47;;;16.88;90.74
64602;BME280;68371;42.630;23.192;2023-09-07T05:34:40;92827.16;;;17.06;91.27
64602;BME280;68371;42.630;23.192;2023-09-07T05:37:21;92822.22;;;17.04;89.59
64602;BME280;68371;42.630;23.192;2023-09-07T05:42:56;92823.84;;;17.16;87.92
64602;BME280;68371;42.630;23.192;2023-09-07T05:45:23;92838.63;;;17.17;88.48
64602;BME280;68371;42.630;23.192;2023-09-07T05:47:49;92845.44;;;17.14;89.02
64602;BME280;68371;42.630;23.192;2023-09-07T05:50:16;92850.03;;;17.17;90.12
64602;BME280;68371;42.630;23.192;2023-09-07T05:52:43;92847.44;;;17.25;88.14
64602;BME280;68371;42.630;23.192;2023-09-07T05:55:10;92847.06;;;17.26;87.97
64602;BME280;68371;42.630;23.192;2023-09-07T05:57:36;92852.81;;;17.32;87.12
64602;BME280;68371;42.630;23.192;2023-09-07T06:00:06;92842.59;;;17.34;87.31
64602;BME280;68371;42.630;23.192;2023-09-07T06:02:33;92842.59;;;17.34;87.52
64602;BME280;68371;42.630;23.192;2023-09-07T06:05:01;92819.38;;;17.24;87.38
64602;BME280;68371;42.630;23.192;2023-09-07T06:07:28;92839.25;;;17.44;89.36
64602;BME280;68371;42.630;23.192;2023-09-07T06:09:55;92844.97;;;17.50;87.80
64602;BME280;68371;42.630;23.192;2023-09-07T06:12:24;92837.44;;;17.52;88.23
64602;BME280;68371;42.630;23.192;2023-09-07T06:14:50;92845.34;;;17.45;89.15
64602;BME280;68371;42.630;23.192;2023-09-07T06:17:18;92827.94;;;17.51;89.20
64602;BME280;68371;42.630;23.192;2023-09-07T06:19:46;92841.63;;;17.56;89.21
64602;BME280;68371;42.630;23.192;2023-09-07T06:22:12;92845.13;;;17.68;88.56
64602;BME280;68371;42.630;23.192;2023-09-07T06:24:39;92838.72;;;17.76;88.28
64602;BME280;68371;42.630;23.192;2023-09-07T06:27:06;92840.41;;;17.91;88.02
64602;BME280;68371;42.630;23.192;2023-09-07T06:29:33;92842.72;;;18.00;86.35
64602;BME280;68371;42.630;23.192;2023-09-07T06:32:00;92852.31;;;18.15;85.50
64602;BME280;68371;42.630;23.192;2023-09-07T06:34:28;92847.41;;;18.25;84.15
64602;BME280;68371;42.630;23.192;2023-09-07T06:36:55;92837.19;;;18.30;85.33
64602;BME280;68371;42.630;23.192;2023-09-07T06:39:21;92843.72;;;18.40;84.23
64602;BME280;68371;42.630;23.192;2023-09-07T06:41:48;92849.09;;;18.54;83.63
64602;BME280;68371;42.630;23.192;2023-09-07T06:44:15;92843.09;;;18.72;81.28
64602;BME280;68371;42.630;23.192;2023-09-07T06:46:41;92844.97;;;18.71;80.29
64602;BME280;68371;42.630;23.192;2023-09-07T06:49:08;92850.75;;;18.80;81.62
64602;BME280;68371;42.630;23.192;2023-09-07T06:51:37;92850.69;;;18.70;82.37
64602;BME280;68371;42.630;23.192;2023-09-07T06:54:04;92849.56;;;18.78;80.87
64602;BME280;68371;42.630;23.192;2023-09-07T06:56:31;92856.06;;;18.84;80.84
64602;BME280;68371;42.630;23.192;2023-09-07T06:58:59;92852.56;;;18.73;79.10
64602;BME280;68371;42.630;23.192;2023-09-07T07:01:26;92869.31;;;18.77;79.44
64602;BME280;68371;42.630;23.192;2023-09-07T07:03:53;92875.09;;;18.86;78.73
64602;BME280;68371;42.630;23.192;2023-09-07T07:06:19;92866.34;;;18.82;78.22
64602;BME280;68371;42.630;23.192;2023-09-07T07:08:47;92870.19;;;18.92;78.02
64602;BME280;68371;42.630;23.192;2023-09-07T07:11:14;92873.22;;;18.97;76.82
64602;BME280;68371;42.630;23.192;2023-09-07T07:13:41;92875.91;;;19.01;78.39
64602;BME280;68371;42.630;23.192;2023-09-07T07:16:08;92864.84;;;18.88;78.28
64602;BME280;68371;42.630;23.192;2023-09-07T07:18:35;92869.81;;;18.97;76.62
64602;BME280;68371;42.630;23.192;2023-09-07T07:21:02;92876.66;;;18.98;78.02
64602;BME280;68371;42.630;23.192;2023-09-07T07:23:29;92886.53;;;19.01;77.36
64602;BME280;68371;42.630;23.192;2023-09-07T07:25:57;92889.22;;;19.01;76.07
64602;BME280;68371;42.630;23.192;2023-09-07T07:28:24;92890.72;;;19.06;75.13
64602;BME280;68371;42.630;23.192;2023-09-07T07:30:51;92878.19;;;19.02;73.72
64602;BME280;68371;42.630;23.192;2023-09-07T07:33:19;92889.97;;;19.01;73.63
64602;BME280;68371;42.630;23.192;2023-09-07T07:35:45;92883.50;;;18.99;75.42
64602;BME280;68371;42.630;23.192;2023-09-07T07:38:13;92885.03;;;19.00;73.99
64602;BME280;68371;42.630;23.192;2023-09-07T07:40:41;92888.47;;;19.11;74.84
64602;BME280;68371;42.630;23.192;2023-09-07T07:43:09;92886.94;;;19.07;72.11
64602;BME280;68371;42.630;23.192;2023-09-07T07:45:38;92900.25;;;19.14;71.61
64602;BME280;68371;42.630;23.192;2023-09-07T07:48:05;92902.97;;;19.21;72.73
64602;BME280;68371;42.630;23.192;2023-09-07T07:50:36;92896.50;;;19.18;68.83
64602;BME280;68371;42.630;23.192;2023-09-07T07:53:03;92899.53;;;19.24;72.11
64602;BME280;68371;42.630;23.192;2023-09-07T07:55:30;92902.59;;;19.26;72.72
64602;BME280;68371;42.630;23.192;2023-09-07T07:57:56;92904.88;;;19.28;74.14
64602;BME280;68371;42.630;23.192;2023-09-07T08:00:24;92907.56;;;19.31;74.24
64602;BME280;68371;42.630;23.192;2023-09-07T08:02:51;92904.09;;;19.20;73.51
64602;BME280;68371;42.630;23.192;2023-09-07T08:05:18;92910.94;;;19.21;73.97
64602;BME280;68371;42.630;23.192;2023-09-07T08:07:44;92910.19;;;19.20;74.20
64602;BME280;68371;42.630;23.192;2023-09-07T08:10:11;92909.00;;;19.07;74.53
64602;BME280;68371;42.630;23.192;2023-09-07T08:12:38;92899.91;;;19.19;75.44
64602;BME280;68371;42.630;23.192;2023-09-07T08:15:05;92899.53;;;19.17;74.74
64602;BME280;68371;42.630;23.192;2023-09-07T08:17:34;92899.13;;;19.11;74.22
64602;BME280;68371;42.630;23.192;2023-09-07T08:20:01;92896.09;;;19.13;74.71
64602;BME280;68371;42.630;23.192;2023-09-07T08:22:28;92898.75;;;19.09;75.16
64602;BME280;68371;42.630;23.192;2023-09-07T08:24:55;92890.78;;;19.16;75.10
64602;BME280;68371;42.630;23.192;2023-09-07T08:27:22;92901.06;;;19.14;75.63
64602;BME280;68371;42.630;23.192;2023-09-07T08:29:49;92894.56;;;19.15;76.35
64602;BME280;68371;42.630;23.192;2023-09-07T08:32:17;92896.88;;;19.17;77.75
64602;BME280;68371;42.630;23.192;2023-09-07T08:34:46;92888.50;;;19.15;77.56
64602;BME280;68371;42.630;23.192;2023-09-07T08:37:12;92886.97;;;19.21;76.11
64602;BME280;68371;42.630;23.192;2023-09-07T08:39:40;92897.63;;;19.17;76.09
64602;BME280;68371;42.630;23.192;2023-09-07T08:42:06;92899.94;;;19.26;74.46
64602;BME280;68371;42.630;23.192;2023-09-07T08:44:37;92894.59;;;19.23;75.11
64602;BME280;68371;42.630;23.192;2023-09-07T08:47:04;92895.78;;;19.32;72.34
64602;BME280;68371;42.630;23.192;2023-09-07T08:49:32;92905.28;;;19.37;72.59
64602;BME280;68371;42.630;23.192;2023-09-07T08:52:02;92896.91;;;19.46;73.06
64602;BME280;68371;42.630;23.192;2023-09-07T08:54:30;92905.31;;;19.51;72.75
64602;BME280;68371;42.630;23.192;2023-09-07T08:57:02;92901.88;;;19.51;72.37
64602;BME280;68371;42.630;23.192;2023-09-07T08:59:29;92907.59;;;19.56;72.53
64602;BME280;68371;42.630;23.192;2023-09-07T09:01:56;92901.53;;;19.63;71.86
64602;BME280;68371;42.630;23.192;2023-09-07T09:04:23;92903.41;;;19.62;71.81
64602;BME280;68371;42.630;23.192;2023-09-07T09:06:50;92900.75;;;19.55;72.50
64602;BME280;68371;42.630;23.192;2023-09-07T09:09:23;92901.09;;;19.50;71.48
64602;BME280;68371;42.630;23.192;2023-09-07T09:11:50;92898.09;;;19.55;71.42
64602;BME280;68371;42.630;23.192;2023-09-07T09:14:18;92907.59;;;19.60;70.54
64602;BME280;68371;42.630;23.192;2023-09-07T09:16:48;92887.78;;;19.43;68.83
64602;BME280;68371;42.630;23.192;2023-09-07T09:19:16;92915.59;;;19.64;69.28
64602;BME280;68371;42.630;23.192;2023-09-07T09:21:44;92908.72;;;19.62;68.58
64602;BME280;68371;42.630;23.192;2023-09-07T09:24:12;92915.59;;;19.64;68.52
64602;BME280;68371;42.630;23.192;2023-09-07T09:26:42;92911.41;;;19.59;67.93
64602;BME280;68371;42.630;23.192;2023-09-07T09:29:09;92911.78;;;19.61;67.08
64602;BME280;68371;42.630;23.192;2023-09-07T09:31:36;92913.31;;;19.66;67.33
64602;BME280;68371;42.630;23.192;2023-09-07T09:34:03;92919.78;;;19.68;67.54
64602;BME280;68371;42.630;23.192;2023-09-07T09:36:33;92915.56;;;19.56;67.87
64602;BME280;68371;42.630;23.192;2023-09-07T09:39:00;92908.34;;;19.60;67.90
64602;BME280;68371;42.630;23.192;2023-09-07T09:41:30;92906.84;;;19.59;66.54
64602;BME280;68371;42.630;23.192;2023-09-07T09:44:02;92909.50;;;19.70;66.77
64602;BME280;68371;42.630;23.192;2023-09-07T09:46:31;92914.50;;;19.72;67.52
64602;BME280;68371;42.630;23.192;2023-09-07T09:48:58;92910.66;;;19.62;66.25
64602;BME280;68371;42.630;23.192;2023-09-07T09:51:27;92902.66;;;19.62;66.50
64602;BME280;68371;42.630;23.192;2023-09-07T09:53:55;92869.13;;;19.43;67.03
64602;BME280;68371;42.630;23.192;2023-09-07T09:56:22;92908.78;;;19.84;67.41
64602;BME280;68371;42.630;23.192;2023-09-07T09:58:50;92904.97;;;19.81;66.13
64602;BME280;68371;42.630;23.192;2023-09-07T10:01:20;92922.13;;;19.91;66.66
64602;BME280;68371;42.630;23.192;2023-09-07T10:03:49;92871.06;;;19.64;65.94
64602;BME280;68371;42.630;23.192;2023-09-07T10:06:23;92907.66;;;19.92;66.21
64602;BME280;68371;42.630;23.192;2023-09-07T10:08:54;92900.41;;;20.00;65.25
64602;BME280;68371;42.630;23.192;2023-09-07T10:11:27;92895.44;;;19.98;65.64
64602;BME280;68371;42.630;23.192;2023-09-07T10:13:57;92902.69;;;19.98;64.44
64602;BME280;68371;42.630;23.192;2023-09-07T10:16:25;92901.56;;;19.95;64.18
64602;BME280;68371;42.630;23.192;2023-09-07T10:18:53;92900.03;;;19.98;65.04
64602;BME280;68371;42.630;23.192;2023-09-07T10:21:24;92911.06;;;19.82;65.55
64602;BME280;68371;42.630;23.192;2023-09-07T10:23:51;92900.41;;;19.93;64.14
64602;BME280;68371;42.630;23.192;2023-09-07T10:26:19;92902.31;;;19.92;64.01
64602;BME280;68371;42.630;23.192;2023-09-07T10:28:58;92886.72;;;19.87;65.86
64602;BME280;68371;42.630;23.192;2023-09-07T10:31:27;92896.59;;;19.97;64.58
64602;BME280;68371;42.630;23.192;2023-09-07T10:33:56;92904.97;;;20.17;63.83
64602;BME280;68371;42.630;23.192;2023-09-07T10:36:25;92885.94;;;20.08;63.88
64602;BME280;68371;42.630;23.192;2023-09-07T10:38:54;92900.38;;;20.25;64.59
64602;BME280;68371;42.630;23.192;2023-09-07T10:41:22;92890.88;;;20.02;62.13
64602;BME280;68371;42.630;23.192;2023-09-07T10:43:50;92908.38;;;20.25;63.12
64602;BME280;68371;42.630;23.192;2023-09-07T10:46:18;92898.09;;;20.27;61.99
64602;BME280;68371;42.630;23.192;2023-09-07T10:48:50;92906.09;;;20.38;62.35
64602;BME280;68371;42.630;23.192;2023-09-07T10:51:18;92898.09;;;20.31;62.97
64602;BME280;68371;42.630;23.192;2023-09-07T10:53:44;92897.72;;;20.32;62.84
64602;BME280;68371;42.630;23.192;2023-09-07T10:56:11;92893.16;;;20.18;63.45
64602;BME280;68371;42.630;23.192;2023-09-07T10:58:38;92892.00;;;20.30;62.39
64602;BME280;68371;42.630;23.192;2023-09-07T11:01:08;92896.56;;;20.40;62.18
64602;BME280;68371;42.630;23.192;2023-09-07T11:03:36;92894.25;;;20.46;60.85
64602;BME280;68371;42.630;23.192;2023-09-07T11:06:07;92885.88;;;20.44;61.69
64602;BME280;68371;42.630;23.192;2023-09-07T11:08:35;92881.66;;;20.50;61.79
64602;BME280;68371;42.630;23.192;2023-09-07T11:11:02;92891.56;;;20.57;61.84
64602;BME280;68371;42.630;23.192;2023-09-07T11:13:29;92886.63;;;20.63;62.54
64602;BME280;68371;42.630;23.192;2023-09-07T11:15:57;92890.78;;;20.64;64.07
64602;BME280;68371;42.630;23.192;2023-09-07T11:18:24;92888.16;;;20.60;62.84
64602;BME280;68371;42.630;23.192;2023-09-07T11:20:52;92889.28;;;20.63;61.26
64602;BME280;68371;42.630;23.192;2023-09-07T11:23:21;92886.56;;;20.70;62.65
64602;BME280;68371;42.630;23.192;2023-09-07T11:25:50;92879.72;;;20.72;63.63
64602;BME280;68371;42.630;23.192;2023-09-07T11:28:17;92875.88;;;20.73;63.59
64602;BME280;68371;42.630;23.192;2023-09-07T11:30:48;92882.34;;;20.79;62.97
64602;BME280;68371;42.630;23.192;2023-09-07T11:33:16;92881.63;;;20.72;63.05
64602;BME280;68371;42.630;23.192;2023-09-07T11:35:43;92870.91;;;20.79;63.22
64602;BME280;68371;42.630;23.192;2023-09-07T11:38:13;92877.44;;;20.74;62.15
64602;BME280;68371;42.630;23.192;2023-09-07T11:40:41;92873.97;;;20.74;61.48
64602;BME280;68371;42.630;23.192;2023-09-07T11:43:10;92880.81;;;20.82;62.35
64602;BME280;68371;42.630;23.192;2023-09-07T11:45:36;92875.09;;;20.80;62.04
64602;BME280;68371;42.630;23.192;2023-09-07T11:48:04;92889.25;;;20.73;63.91
64602;BME280;68371;42.630;23.192;2023-09-07T11:50:30;92885.06;;;20.69;61.17
64602;BME280;68371;42.630;23.192;2023-09-07T11:52:57;92869.00;;;20.83;61.31
64602;BME280;68371;42.630;23.192;2023-09-07T11:55:25;92880.81;;;20.82;61.85
64602;BME280;68371;42.630;23.192;2023-09-07T11:57:53;92883.09;;;20.91;63.27
64602;BME280;68371;42.630;23.192;2023-09-07T12:00:20;92873.09;;;21.02;62.93
64602;BME280;68371;42.630;23.192;2023-09-07T12:02:47;92879.63;;;20.94;64.46
64602;BME280;68371;42.630;23.192;2023-09-07T12:05:14;92867.44;;;20.89;63.22
64602;BME280;68371;42.630;23.192;2023-09-07T12:07:41;92869.34;;;20.89;62.27
64602;BME280;68371;42.630;23.192;2023-09-07T12:10:09;92868.56;;;20.99;64.19
64602;BME280;68371;42.630;23.192;2023-09-07T12:12:36;92875.03;;;20.98;63.67
64602;BME280;68371;42.630;23.192;2023-09-07T12:15:05;92862.06;;;20.96;60.99
64602;BME280;68371;42.630;23.192;2023-09-07T12:17:32;92870.44;;;20.98;62.57
64602;BME280;68371;42.630;23.192;2023-09-07T12:19:59;92858.59;;;21.03;63.72
64602;BME280;68371;42.630;23.192;2023-09-07T12:22:26;92867.34;;;21.11;62.58
64602;BME280;68371;42.630;23.192;2023-09-07T12:24:53;92869.66;;;21.05;61.41
64602;BME280;68371;42.630;23.192;2023-09-07T12:27:20;92863.94;;;21.03;60.91
64602;BME280;68371;42.630;23.192;2023-09-07T12:29:46;92871.59;;;21.05;61.82
64602;BME280;68371;42.630;23.192;2023-09-07T12:32:15;92864.69;;;21.04;62.59
64602;BME280;68371;42.630;23.192;2023-09-07T12:34:42;92864.25;;;21.12;63.36
64602;BME280;68371;42.630;23.192;2023-09-07T12:37:08;92870.41;;;21.09;62.24
64602;BME280;68371;42.630;23.192;2023-09-07T12:39:36;92880.28;;;21.12;62.56
64602;BME280;68371;42.630;23.192;2023-09-07T12:42:03;92871.81;;;21.28;62.14
64602;BME280;68371;42.630;23.192;2023-09-07T12:44:29;92882.06;;;21.37;62.44
64602;BME280;68371;42.630;23.192;2023-09-07T12:46:58;92879.06;;;21.31;61.57
64602;BME280;68371;42.630;23.192;2023-09-07T12:49:26;92881.75;;;21.24;61.91
64602;BME280;68371;42.630;23.192;2023-09-07T12:51:53;92884.75;;;21.37;61.09
64602;BME280;68371;42.630;23.192;2023-09-07T12:54:20;92872.91;;;21.45;63.28
64602;BME280;68371;42.630;23.192;2023-09-07T12:56:47;92882.78;;;21.52;61.60
64602;BME280;68371;42.630;23.192;2023-09-07T12:59:13;92879.34;;;21.51;61.28
64602;BME280;68371;42.630;23.192;2023-09-07T13:01:40;92885.47;;;21.48;61.56
64602;BME280;68371;42.630;23.192;2023-09-07T13:04:07;92884.72;;;21.44;61.38
64602;BME280;68371;42.630;23.192;2023-09-07T13:06:35;92883.19;;;21.47;60.79
64602;BME280;68371;42.630;23.192;2023-09-07T13:09:02;92885.06;;;21.53;61.65
64602;BME280;68371;42.630;23.192;2023-09-07T13:11:30;92886.72;;;21.29;60.64
64602;BME280;68371;42.630;23.192;2023-09-07T13:13:56;92888.56;;;21.36;61.36
64602;BME280;68371;42.630;23.192;2023-09-07T13:16:23;92880.50;;;21.50;60.84
64602;BME280;68371;42.630;23.192;2023-09-07T13:18:50;92889.69;;;21.49;60.60
64602;BME280;68371;42.630;23.192;2023-09-07T13:21:16;92891.63;;;21.38;60.54
64602;BME280;68371;42.630;23.192;2023-09-07T13:23:45;92885.88;;;21.39;61.32
64602;BME280;68371;42.630;23.192;2023-09-07T13:26:12;92887.00;;;21.42;61.39
64602;BME280;68371;42.630;23.192;2023-09-07T13:28:39;92882.44;;;21.39;62.36
64602;BME280;68371;42.630;23.192;2023-09-07T13:31:06;92877.09;;;21.46;60.63
64602;BME280;68371;42.630;23.192;2023-09-07T13:33:33;92875.53;;;21.49;59.93
64602;BME280;68371;42.630;23.192;2023-09-07T13:36:00;92882.44;;;21.39;59.79
64602;BME280;68371;42.630;23.192;2023-09-07T13:38:27;92870.22;;;21.45;61.20
64602;BME280;68371;42.630;23.192;2023-09-07T13:40:55;92869.44;;;21.45;60.24
64602;BME280;68371;42.630;23.192;2023-09-07T13:43:22;92864.09;;;21.45;61.33
64602;BME280;68371;42.630;23.192;2023-09-07T13:45:49;92866.75;;;21.41;61.59
64602;BME280;68371;42.630;23.192;2023-09-07T13:48:15;92870.25;;;21.34;60.83
64602;BME280;68371;42.630;23.192;2023-09-07T13:50:42;92870.25;;;21.34;60.53
64602;BME280;68371;42.630;23.192;2023-09-07T13:53:09;92870.63;;;21.33;60.17
64602;BME280;68371;42.630;23.192;2023-09-07T13:55:36;92866.41;;;21.39;61.42
64602;BME280;68371;42.630;23.192;2023-09-07T13:58:06;92874.03;;;21.44;59.86
64602;BME280;68371;42.630;23.192;2023-09-07T14:00:33;92851.91;;;21.40;60.98
64602;BME280;68371;42.630;23.192;2023-09-07T14:02:59;92860.22;;;21.56;61.54
64602;BME280;68371;42.630;23.192;2023-09-07T14:05:26;92865.19;;;21.58;61.38
64602;BME280;68371;42.630;23.192;2023-09-07T14:07:53;92865.56;;;21.56;62.51
64602;BME280;68371;42.630;23.192;2023-09-07T14:10:20;92869.03;;;21.53;60.65
64602;BME280;68371;42.630;23.192;2023-09-07T14:12:46;92871.34;;;21.48;63.10
64602;BME280;68371;42.630;23.192;2023-09-07T14:15:15;92863.72;;;21.50;62.33
64602;BME280;68371;42.630;23.192;2023-09-07T14:17:42;92865.94;;;21.58;61.75
64602;BME280;68371;42.630;23.192;2023-09-07T14:20:10;92865.19;;;21.54;60.54
64602;BME280;68371;42.630;23.192;2023-09-07T14:22:36;92868.59;;;21.58;60.88
64602;BME280;68371;42.630;23.192;2023-09-07T14:25:04;92869.75;;;21.57;60.66
64602;BME280;68371;42.630;23.192;2023-09-07T14:27:32;92864.81;;;21.52;62.03
64602;BME280;68371;42.630;23.192;2023-09-07T14:30:00;92858.38;;;21.39;59.81
64602;BME280;68371;42.630;23.192;2023-09-07T14:32:29;92854.66;;;21.29;59.66
64602;BME280;68371;42.630;23.192;2023-09-07T14:34:56;92855.31;;;21.48;60.45
64602;BME280;68371;42.630;23.192;2023-09-07T14:37:22;92855.22;;;21.62;59.03
64602;BME280;68371;42.630;23.192;2023-09-07T14:39:49;92854.88;;;21.56;61.56
64602;BME280;68371;42.630;23.192;2023-09-07T14:42:16;92859.28;;;21.77;60.40
64602;BME280;68371;42.630;23.192;2023-09-07T14:44:45;92841.28;;;21.85;60.30
64602;BME280;68371;42.630;23.192;2023-09-07T14:47:12;92851.06;;;22.03;59.35
64602;BME280;68371;42.630;23.192;2023-09-07T14:49:40;92859.09;;;22.03;58.81
64602;BME280;68371;42.630;23.192;2023-09-07T14:52:07;92852.22;;;22.01;60.16
64602;BME280;68371;42.630;23.192;2023-09-07T14:54:34;92844.13;;;22.09;57.95
64602;BME280;68371;42.630;23.192;2023-09-07T14:57:01;92851.41;;;22.08;57.52
64602;BME280;68371;42.630;23.192;2023-09-07T14:59:28;92850.63;;;22.08;57.58
64602;BME280;68371;42.630;23.192;2023-09-07T15:01:55;92849.81;;;22.14;57.26
64602;BME280;68371;42.630;23.192;2023-09-07T15:04:22;92851.72;;;22.14;57.71
64602;BME280;68371;42.630;23.192;2023-09-07T15:06:50;92847.50;;;22.16;57.79
64602;BME280;68371;42.630;23.192;2023-09-07T15:09:17;92851.31;;;22.15;56.75
64602;BME280;68371;42.630;23.192;2023-09-07T15:11:43;92849.75;;;22.18;57.04
64602;BME280;68371;42.630;23.192;2023-09-07T15:14:10;92847.91;;;22.15;56.63
64602;BME280;68371;42.630;23.192;2023-09-07T15:16:37;92849.00;;;22.17;56.40
64602;BME280;68371;42.630;23.192;2023-09-07T15:19:04;92845.56;;;22.17;57.62
64602;BME280;68371;42.630;23.192;2023-09-07T15:21:30;92846.34;;;22.17;56.73
64602;BME280;68371;42.630;23.192;2023-09-07T15:23:59;92847.91;;;22.15;56.88
64602;BME280;68371;42.630;23.192;2023-09-07T15:26:25;92850.22;;;22.13;57.30
64602;BME280;68371;42.630;23.192;2023-09-07T15:28:52;92847.16;;;22.11;57.49
64602;BME280;68371;42.630;23.192;2023-09-07T15:31:19;92846.47;;;22.03;58.08
64602;BME280;68371;42.630;23.192;2023-09-07T15:33:45;92846.47;;;22.03;56.52
64602;BME280;68371;42.630;23.192;2023-09-07T15:36:12;92848.78;;;22.01;58.51